createdAt,value
2022-09-18T00:00:00.430Z,101279
2022-09-18T00:01:06.013Z,101273
2022-09-18T00:02:00.520Z,101273
2022-09-18T00:03:00.412Z,101273
2022-09-18T00:04:01.645Z,101273
2022-09-18T00:05:00.300Z,101273
2022-09-18T00:06:09.238Z,101277
2022-09-18T00:07:00.276Z,101277
2022-09-18T00:08:00.352Z,101277
2022-09-18T00:09:01.437Z,101277
2022-09-18T00:10:00.777Z,101277
2022-09-18T00:11:02.865Z,101271
2022-09-18T00:12:00.366Z,101271
2022-09-18T00:13:00.303Z,101271
2022-09-18T00:14:00.372Z,101271
2022-09-18T00:15:00.274Z,101271
2022-09-18T00:16:00.360Z,101276
2022-09-18T00:17:00.382Z,101276
2022-09-18T00:18:00.281Z,101276
2022-09-18T00:19:00.530Z,101276
2022-09-18T00:20:00.471Z,101276
2022-09-18T00:21:02.525Z,101272
2022-09-18T00:22:00.277Z,101272
2022-09-18T00:23:00.395Z,101272
2022-09-18T00:24:00.464Z,101272
2022-09-18T00:25:00.357Z,101272
2022-09-18T00:26:00.807Z,101278
2022-09-18T00:27:00.337Z,101278
2022-09-18T00:28:00.343Z,101278
2022-09-18T00:29:00.442Z,101278
2022-09-18T00:30:00.294Z,101278
2022-09-18T00:31:10.379Z,101282
2022-09-18T00:32:00.387Z,101282
2022-09-18T00:33:00.267Z,101282
2022-09-18T00:34:01.447Z,101282
2022-09-18T00:35:00.283Z,101282
2022-09-18T00:36:01.493Z,101276
2022-09-18T00:37:00.319Z,101276
2022-09-18T00:38:00.261Z,101276
2022-09-18T00:39:00.515Z,101276
2022-09-18T00:40:00.510Z,101276
2022-09-18T00:41:01.339Z,101281
2022-09-18T00:42:00.413Z,101281
2022-09-18T00:43:10.232Z,101281
2022-09-18T00:44:10.257Z,101281
2022-09-18T00:45:00.313Z,101281
2022-09-18T00:46:00.274Z,101277
2022-09-18T00:47:03.783Z,101277
2022-09-18T00:48:00.341Z,101277
2022-09-18T00:49:07.747Z,101277
2022-09-18T00:50:03.562Z,101277
2022-09-18T00:51:00.277Z,101276
2022-09-18T00:52:00.458Z,101276
2022-09-18T00:53:02.380Z,101276
2022-09-18T00:54:04.344Z,101276
2022-09-18T00:55:03.787Z,101276
2022-09-18T00:56:02.435Z,101276
2022-09-18T00:57:03.859Z,101276
2022-09-18T00:58:01.423Z,101276
2022-09-18T00:59:00.471Z,101276
2022-09-18T01:00:01.375Z,101276
2022-09-18T01:01:00.329Z,101281
2022-09-18T01:02:00.417Z,101281
2022-09-18T01:03:00.700Z,101281
2022-09-18T01:04:00.353Z,101281
2022-09-18T01:05:00.292Z,101281
2022-09-18T01:06:10.181Z,101275
2022-09-18T01:07:03.663Z,101275
2022-09-18T01:08:01.310Z,101275
2022-09-18T01:09:07.885Z,101275
2022-09-18T01:10:10.192Z,101275
2022-09-18T01:11:10.222Z,101269
2022-09-18T01:12:10.173Z,101269
2022-09-18T01:13:08.154Z,101269
2022-09-18T01:14:00.327Z,101269
2022-09-18T01:15:10.167Z,101269
2022-09-18T01:16:00.344Z,101270
2022-09-18T01:17:10.174Z,101270
2022-09-18T01:18:10.184Z,101270
2022-09-18T01:19:07.775Z,101270
2022-09-18T01:20:03.763Z,101270
2022-09-18T01:21:04.380Z,101273
2022-09-18T01:22:00.256Z,101273
2022-09-18T01:23:07.436Z,101273
2022-09-18T01:24:10.222Z,101273
2022-09-18T01:25:10.187Z,101273
2022-09-18T01:26:10.169Z,101264
2022-09-18T01:27:05.210Z,101264
2022-09-18T01:28:00.291Z,101264
2022-09-18T01:29:10.201Z,101264
2022-09-18T01:30:03.316Z,101264
2022-09-18T01:31:03.450Z,101261
2022-09-18T01:32:05.176Z,101261
2022-09-18T01:33:06.762Z,101261
2022-09-18T01:34:06.014Z,101261
2022-09-18T01:35:29.909Z,101261
2022-09-18T01:36:03.417Z,101257
2022-09-18T01:37:06.180Z,101257
2022-09-18T01:38:07.564Z,101257
2022-09-18T01:39:04.070Z,101257
2022-09-18T01:40:10.252Z,101257
2022-09-18T01:41:10.196Z,101249
2022-09-18T01:42:02.253Z,101249
2022-09-18T01:43:03.932Z,101249
2022-09-18T01:44:04.629Z,101249
2022-09-18T01:45:03.564Z,101249
2022-09-18T01:46:02.306Z,101246
2022-09-18T01:47:02.259Z,101246
2022-09-18T01:48:02.618Z,101246
2022-09-18T01:49:03.323Z,101246
2022-09-18T01:50:01.669Z,101246
2022-09-18T01:51:04.350Z,101242
2022-09-18T01:52:04.141Z,101242
2022-09-18T01:53:04.978Z,101242
2022-09-18T01:54:04.021Z,101242
2022-09-18T01:55:01.237Z,101242
2022-09-18T01:56:05.155Z,101240
2022-09-18T01:57:06.953Z,101240
2022-09-18T01:58:04.807Z,101240
2022-09-18T01:59:03.026Z,101240
2022-09-18T02:00:04.227Z,101240
2022-09-18T02:01:02.621Z,101234
2022-09-18T02:02:02.266Z,101234
2022-09-18T02:03:01.323Z,101234
2022-09-18T02:04:03.523Z,101234
2022-09-18T02:05:03.866Z,101234
2022-09-18T02:06:05.625Z,101227
2022-09-18T02:07:07.642Z,101227
2022-09-18T02:08:06.725Z,101227
2022-09-18T02:09:01.395Z,101227
2022-09-18T02:10:00.402Z,101227
2022-09-18T02:11:03.248Z,101225
2022-09-18T02:12:00.753Z,101225
2022-09-18T02:13:01.706Z,101225
2022-09-18T02:14:05.986Z,101225
2022-09-18T02:15:04.323Z,101225
2022-09-18T02:16:02.586Z,101227
2022-09-18T02:17:04.309Z,101227
2022-09-18T02:18:03.754Z,101227
2022-09-18T02:19:04.360Z,101227
2022-09-18T02:20:04.349Z,101227
2022-09-18T02:21:00.509Z,101229
2022-09-18T02:22:02.522Z,101229
2022-09-18T02:23:02.322Z,101229
2022-09-18T02:24:03.862Z,101229
2022-09-18T02:25:03.225Z,101229
2022-09-18T02:26:02.698Z,101235
2022-09-18T02:27:02.018Z,101235
2022-09-18T02:28:01.351Z,101235
2022-09-18T02:29:01.333Z,101235
2022-09-18T02:30:01.064Z,101235
2022-09-18T02:31:00.345Z,101238
2022-09-18T02:32:00.771Z,101238
2022-09-18T02:33:00.291Z,101238
2022-09-18T02:34:00.306Z,101238
2022-09-18T02:35:00.504Z,101238
2022-09-18T02:36:00.281Z,101232
2022-09-18T02:37:10.171Z,101232
2022-09-18T02:38:04.807Z,101232
2022-09-18T02:39:10.181Z,101232
2022-09-18T02:40:03.659Z,101232
2022-09-18T02:41:03.595Z,101228
2022-09-18T02:42:10.182Z,101228
2022-09-18T02:43:01.310Z,101228
2022-09-18T02:44:05.611Z,101228
2022-09-18T02:45:10.193Z,101228
2022-09-18T02:46:10.276Z,101219
2022-09-18T02:47:07.163Z,101219
2022-09-18T02:48:00.280Z,101219
2022-09-18T02:49:08.003Z,101219
2022-09-18T02:50:09.427Z,101219
2022-09-18T02:51:07.464Z,101214
2022-09-18T02:52:10.213Z,101214
2022-09-18T02:53:10.355Z,101214
2022-09-18T02:54:01.398Z,101214
2022-09-18T02:55:07.415Z,101214
2022-09-18T02:56:05.764Z,101217
2022-09-18T02:57:02.688Z,101217
2022-09-18T02:58:04.292Z,101217
2022-09-18T02:59:00.371Z,101217
2022-09-18T03:00:00.706Z,101217
2022-09-18T03:01:02.469Z,101210
2022-09-18T03:02:00.999Z,101210
2022-09-18T03:03:00.616Z,101210
2022-09-18T03:04:02.961Z,101210
2022-09-18T03:05:00.291Z,101210
2022-09-18T03:06:00.821Z,101210
2022-09-18T03:07:00.351Z,101210
2022-09-18T03:08:00.577Z,101210
2022-09-18T03:09:00.285Z,101210
2022-09-18T03:10:00.333Z,101210
2022-09-18T03:11:00.363Z,101206
2022-09-18T03:12:00.889Z,101206
2022-09-18T03:13:00.404Z,101206
2022-09-18T03:14:00.268Z,101206
2022-09-18T03:15:01.424Z,101206
2022-09-18T03:16:00.691Z,101202
2022-09-18T03:17:02.629Z,101202
2022-09-18T03:18:09.891Z,101202
2022-09-18T03:19:00.297Z,101202
2022-09-18T03:20:00.340Z,101202
2022-09-18T03:21:00.296Z,101199
2022-09-18T03:22:00.335Z,101199
2022-09-18T03:23:00.258Z,101199
2022-09-18T03:24:00.758Z,101199
2022-09-18T03:25:00.323Z,101199
2022-09-18T03:26:00.327Z,101198
2022-09-18T03:27:00.324Z,101198
2022-09-18T03:28:00.396Z,101198
2022-09-18T03:29:00.288Z,101198
2022-09-18T03:30:00.277Z,101198
2022-09-18T03:31:00.368Z,101202
2022-09-18T03:32:00.368Z,101202
2022-09-18T03:33:00.292Z,101202
2022-09-18T03:34:00.414Z,101202
2022-09-18T03:35:00.272Z,101202
2022-09-18T03:36:00.364Z,101200
2022-09-18T03:37:00.284Z,101200
2022-09-18T03:38:00.271Z,101200
2022-09-18T03:39:00.450Z,101200
2022-09-18T03:40:00.513Z,101200
2022-09-18T03:41:01.263Z,101191
2022-09-18T03:42:00.282Z,101191
2022-09-18T03:43:00.285Z,101191
2022-09-18T03:44:00.410Z,101191
2022-09-18T03:45:00.286Z,101191
2022-09-18T03:46:00.778Z,101187
2022-09-18T03:47:00.345Z,101187
2022-09-18T03:48:00.388Z,101187
2022-09-18T03:49:00.309Z,101187
2022-09-18T03:50:00.278Z,101187
2022-09-18T03:51:00.280Z,101190
2022-09-18T03:52:00.411Z,101190
2022-09-18T03:53:00.632Z,101190
2022-09-18T03:54:00.509Z,101190
2022-09-18T03:55:00.329Z,101190
2022-09-18T03:56:00.344Z,101187
2022-09-18T03:57:00.278Z,101187
2022-09-18T03:58:00.654Z,101187
2022-09-18T03:59:00.327Z,101187
2022-09-18T04:00:00.435Z,101187
2022-09-18T04:01:00.343Z,101182
2022-09-18T04:02:00.403Z,101182
2022-09-18T04:03:00.393Z,101182
2022-09-18T04:04:00.586Z,101182
2022-09-18T04:05:00.319Z,101182
2022-09-18T04:06:00.803Z,101189
2022-09-18T04:07:00.293Z,101189
2022-09-18T04:08:00.381Z,101189
2022-09-18T04:09:00.409Z,101189
2022-09-18T04:10:01.165Z,101189
2022-09-18T04:11:00.339Z,101189
2022-09-18T04:12:00.408Z,101189
2022-09-18T04:13:00.298Z,101189
2022-09-18T04:14:01.137Z,101189
2022-09-18T04:15:00.379Z,101189
2022-09-18T04:16:00.811Z,101196
2022-09-18T04:17:00.303Z,101196
2022-09-18T04:18:00.435Z,101196
2022-09-18T04:19:00.303Z,101196
2022-09-18T04:20:00.405Z,101196
2022-09-18T04:21:00.404Z,101195
2022-09-18T04:22:00.291Z,101195
2022-09-18T04:23:00.281Z,101195
2022-09-18T04:24:00.504Z,101195
2022-09-18T04:25:00.435Z,101195
2022-09-18T04:26:00.330Z,101197
2022-09-18T04:27:00.365Z,101197
2022-09-18T04:28:00.402Z,101197
2022-09-18T04:29:00.394Z,101197
2022-09-18T04:30:00.307Z,101197
2022-09-18T04:31:00.494Z,101197
2022-09-18T04:32:00.351Z,101197
2022-09-18T04:33:00.283Z,101197
2022-09-18T04:34:00.493Z,101197
2022-09-18T04:35:00.319Z,101197
2022-09-18T04:36:00.431Z,101194
2022-09-18T04:37:00.295Z,101194
2022-09-18T04:38:00.337Z,101194
2022-09-18T04:39:00.687Z,101194
2022-09-18T04:40:00.501Z,101194
2022-09-18T04:41:00.348Z,101200
2022-09-18T04:42:00.828Z,101200
2022-09-18T04:43:00.287Z,101200
2022-09-18T04:44:00.445Z,101200
2022-09-18T04:45:00.359Z,101200
2022-09-18T04:46:00.429Z,101200
2022-09-18T04:47:00.388Z,101200
2022-09-18T04:48:00.691Z,101200
2022-09-18T04:49:00.396Z,101200
2022-09-18T04:50:00.298Z,101200
2022-09-18T04:51:00.315Z,101197
2022-09-18T04:52:00.420Z,101197
2022-09-18T04:53:00.361Z,101197
2022-09-18T04:54:00.550Z,101197
2022-09-18T04:55:00.738Z,101197
2022-09-18T04:56:00.369Z,101201
2022-09-18T04:57:00.310Z,101201
2022-09-18T04:58:00.319Z,101201
2022-09-18T04:59:00.383Z,101201
2022-09-18T05:00:00.438Z,101201
2022-09-18T05:01:00.432Z,101207
2022-09-18T05:02:00.880Z,101207
2022-09-18T05:03:00.770Z,101207
2022-09-18T05:04:00.576Z,101207
2022-09-18T05:05:00.286Z,101207
2022-09-18T05:06:00.310Z,101202
2022-09-18T05:07:00.287Z,101202
2022-09-18T05:08:01.166Z,101202
2022-09-18T05:09:00.399Z,101202
2022-09-18T05:10:00.327Z,101202
2022-09-18T05:11:00.368Z,101200
2022-09-18T05:12:00.373Z,101200
2022-09-18T05:13:00.292Z,101200
2022-09-18T05:14:00.320Z,101200
2022-09-18T05:15:00.296Z,101200
2022-09-18T05:16:00.542Z,101196
2022-09-18T05:17:00.501Z,101196
2022-09-18T05:18:01.287Z,101196
2022-09-18T05:19:00.464Z,101196
2022-09-18T05:20:00.366Z,101196
2022-09-18T05:21:01.223Z,101194
2022-09-18T05:22:00.314Z,101194
2022-09-18T05:23:00.289Z,101194
2022-09-18T05:24:00.488Z,101194
2022-09-18T05:25:00.320Z,101194
2022-09-18T05:26:01.075Z,101194
2022-09-18T05:27:00.312Z,101194
2022-09-18T05:28:01.023Z,101194
2022-09-18T05:29:00.344Z,101194
2022-09-18T05:30:02.045Z,101194
2022-09-18T05:31:00.691Z,101197
2022-09-18T05:32:00.466Z,101197
2022-09-18T05:33:03.307Z,101197
2022-09-18T05:34:04.109Z,101197
2022-09-18T05:35:00.753Z,101197
2022-09-18T05:36:00.368Z,101190
2022-09-18T05:37:00.302Z,101190
2022-09-18T05:38:01.043Z,101190
2022-09-18T05:39:00.469Z,101190
2022-09-18T05:40:00.778Z,101190
2022-09-18T05:41:00.628Z,101193
2022-09-18T05:42:00.288Z,101193
2022-09-18T05:43:00.721Z,101193
2022-09-18T05:44:00.486Z,101193
2022-09-18T05:45:01.991Z,101193
2022-09-18T05:46:00.289Z,101198
2022-09-18T05:47:00.567Z,101198
2022-09-18T05:48:01.513Z,101198
2022-09-18T05:49:00.391Z,101198
2022-09-18T05:50:00.287Z,101198
2022-09-18T05:51:00.326Z,101198
2022-09-18T05:52:00.331Z,101198
2022-09-18T05:53:02.875Z,101198
2022-09-18T05:54:00.379Z,101198
2022-09-18T05:55:00.570Z,101198
2022-09-18T05:56:00.470Z,101199
2022-09-18T05:57:00.274Z,101199
2022-09-18T05:58:01.230Z,101199
2022-09-18T05:59:00.280Z,101199
2022-09-18T06:00:00.412Z,101199
2022-09-18T06:01:00.321Z,101204
2022-09-18T06:02:00.374Z,101204
2022-09-18T06:03:01.906Z,101204
2022-09-18T06:04:00.606Z,101204
2022-09-18T06:05:00.298Z,101204
2022-09-18T06:06:00.328Z,101203
2022-09-18T06:07:00.330Z,101203
2022-09-18T06:08:01.149Z,101203
2022-09-18T06:09:00.382Z,101203
2022-09-18T06:10:00.342Z,101203
2022-09-18T06:11:00.843Z,101210
2022-09-18T06:12:00.390Z,101210
2022-09-18T06:13:01.343Z,101210
2022-09-18T06:14:00.392Z,101210
2022-09-18T06:15:00.304Z,101210
2022-09-18T06:16:00.458Z,101218
2022-09-18T06:17:00.301Z,101218
2022-09-18T06:18:00.689Z,101218
2022-09-18T06:19:00.409Z,101218
2022-09-18T06:20:00.444Z,101218
2022-09-18T06:21:00.378Z,101216
2022-09-18T06:22:00.305Z,101216
2022-09-18T06:23:01.015Z,101216
2022-09-18T06:24:00.409Z,101216
2022-09-18T06:25:00.432Z,101216
2022-09-18T06:26:02.163Z,101216
2022-09-18T06:27:00.309Z,101216
2022-09-18T06:28:00.423Z,101216
2022-09-18T06:29:00.547Z,101216
2022-09-18T06:30:00.383Z,101216
2022-09-18T06:31:01.215Z,101221
2022-09-18T06:32:00.358Z,101221
2022-09-18T06:33:01.577Z,101221
2022-09-18T06:34:01.165Z,101221
2022-09-18T06:35:00.362Z,101221
2022-09-18T06:36:00.410Z,101215
2022-09-18T06:37:00.591Z,101215
2022-09-18T06:38:00.796Z,101215
2022-09-18T06:39:00.440Z,101215
2022-09-18T06:40:00.511Z,101215
2022-09-18T06:41:00.929Z,101218
2022-09-18T06:42:00.323Z,101218
2022-09-18T06:43:00.953Z,101218
2022-09-18T06:44:00.458Z,101218
2022-09-18T06:45:00.607Z,101218
2022-09-18T06:46:00.291Z,101226
2022-09-18T06:47:00.417Z,101226
2022-09-18T06:48:00.879Z,101226
2022-09-18T06:49:00.396Z,101226
2022-09-18T06:50:00.356Z,101226
2022-09-18T06:51:00.317Z,101223
2022-09-18T06:52:00.365Z,101223
2022-09-18T06:53:01.166Z,101223
2022-09-18T06:54:00.444Z,101223
2022-09-18T06:55:00.286Z,101223
2022-09-18T06:56:00.381Z,101219
2022-09-18T06:57:00.303Z,101219
2022-09-18T06:58:00.293Z,101219
2022-09-18T06:59:00.372Z,101219
2022-09-18T07:00:00.492Z,101219
2022-09-18T07:01:01.071Z,101219
2022-09-18T07:02:00.402Z,101219
2022-09-18T07:03:01.310Z,101219
2022-09-18T07:04:00.560Z,101219
2022-09-18T07:05:00.817Z,101219
2022-09-18T07:06:00.334Z,101222
2022-09-18T07:07:00.298Z,101222
2022-09-18T07:08:00.451Z,101222
2022-09-18T07:09:00.657Z,101222
2022-09-18T07:10:00.312Z,101222
2022-09-18T07:11:00.783Z,101228
2022-09-18T07:12:00.422Z,101228
2022-09-18T07:13:00.288Z,101228
2022-09-18T07:14:00.951Z,101228
2022-09-18T07:15:00.350Z,101228
2022-09-18T07:16:00.416Z,101223
2022-09-18T07:17:00.379Z,101223
2022-09-18T07:18:01.087Z,101223
2022-09-18T07:19:00.643Z,101223
2022-09-18T07:20:00.425Z,101223
2022-09-18T07:21:00.364Z,101230
2022-09-18T07:22:00.315Z,101230
2022-09-18T07:23:00.706Z,101230
2022-09-18T07:24:00.526Z,101230
2022-09-18T07:25:00.702Z,101230
2022-09-18T07:26:01.355Z,101235
2022-09-18T07:27:00.953Z,101235
2022-09-18T07:28:02.808Z,101235
2022-09-18T07:29:00.373Z,101235
2022-09-18T07:30:00.336Z,101235
2022-09-18T07:31:04.055Z,101238
2022-09-18T07:32:00.300Z,101238
2022-09-18T07:33:01.175Z,101238
2022-09-18T07:34:00.515Z,101238
2022-09-18T07:35:00.369Z,101238
2022-09-18T07:36:00.758Z,101232
2022-09-18T07:37:00.653Z,101232
2022-09-18T07:38:01.174Z,101232
2022-09-18T07:39:00.512Z,101232
2022-09-18T07:40:00.600Z,101232
2022-09-18T07:41:00.655Z,101232
2022-09-18T07:42:00.322Z,101232
2022-09-18T07:43:01.471Z,101232
2022-09-18T07:44:00.461Z,101232
2022-09-18T07:45:00.384Z,101232
2022-09-18T07:46:00.980Z,101230
2022-09-18T07:47:01.035Z,101230
2022-09-18T07:48:01.997Z,101230
2022-09-18T07:49:00.337Z,101230
2022-09-18T07:50:00.459Z,101230
2022-09-18T07:51:00.491Z,101231
2022-09-18T07:52:00.415Z,101231
2022-09-18T07:53:01.075Z,101231
2022-09-18T07:54:00.505Z,101231
2022-09-18T07:55:00.286Z,101231
2022-09-18T07:56:00.488Z,101231
2022-09-18T07:57:00.341Z,101231
2022-09-18T07:58:01.594Z,101231
2022-09-18T07:59:00.394Z,101231
2022-09-18T08:00:00.425Z,101231
2022-09-18T08:01:00.559Z,101219
2022-09-18T08:02:00.460Z,101219
2022-09-18T08:03:01.341Z,101219
2022-09-18T08:04:01.121Z,101219
2022-09-18T08:05:00.313Z,101219
2022-09-18T08:06:00.283Z,101224
2022-09-18T08:07:00.293Z,101224
2022-09-18T08:08:01.136Z,101224
2022-09-18T08:09:00.522Z,101224
2022-09-18T08:10:00.487Z,101224
2022-09-18T08:11:00.291Z,101227
2022-09-18T08:12:00.426Z,101227
2022-09-18T08:13:00.347Z,101227
2022-09-18T08:14:00.784Z,101227
2022-09-18T08:15:00.314Z,101227
2022-09-18T08:16:01.702Z,101230
2022-09-18T08:17:01.617Z,101230
2022-09-18T08:18:00.295Z,101230
2022-09-18T08:19:00.362Z,101230
2022-09-18T08:20:00.383Z,101230
2022-09-18T08:21:00.281Z,101230
2022-09-18T08:22:00.301Z,101230
2022-09-18T08:23:02.304Z,101230
2022-09-18T08:24:00.477Z,101230
2022-09-18T08:25:00.296Z,101230
2022-09-18T08:26:00.749Z,101234
2022-09-18T08:27:00.310Z,101234
2022-09-18T08:28:00.971Z,101234
2022-09-18T08:29:00.354Z,101234
2022-09-18T08:30:00.291Z,101234
2022-09-18T08:31:00.372Z,101240
2022-09-18T08:32:00.349Z,101240
2022-09-18T08:33:01.444Z,101240
2022-09-18T08:34:01.730Z,101240
2022-09-18T08:35:00.534Z,101240
2022-09-18T08:36:00.652Z,101240
2022-09-18T08:37:00.297Z,101240
2022-09-18T08:38:00.660Z,101240
2022-09-18T08:39:01.197Z,101240
2022-09-18T08:40:00.573Z,101240
2022-09-18T08:41:10.387Z,101233
2022-09-18T08:42:05.978Z,101233
2022-09-18T08:43:10.186Z,101233
2022-09-18T08:44:01.058Z,101233
2022-09-18T08:45:10.718Z,101233
2022-09-18T08:46:04.121Z,101232
2022-09-18T08:47:01.444Z,101232
2022-09-18T08:48:05.408Z,101232
2022-09-18T08:49:05.678Z,101232
2022-09-18T08:50:00.268Z,101232
2022-09-18T08:51:05.757Z,101236
2022-09-18T08:52:05.914Z,101236
2022-09-18T08:53:03.524Z,101236
2022-09-18T08:54:10.339Z,101236
2022-09-18T08:55:02.473Z,101236
2022-09-18T08:56:00.674Z,101241
2022-09-18T08:57:04.368Z,101241
2022-09-18T08:58:02.425Z,101241
2022-09-18T08:59:03.781Z,101241
2022-09-18T09:00:03.389Z,101241
2022-09-18T09:01:10.728Z,101245
2022-09-18T09:02:10.324Z,101245
2022-09-18T09:03:10.424Z,101245
2022-09-18T09:04:06.781Z,101245
2022-09-18T09:05:01.679Z,101245
2022-09-18T09:06:05.888Z,101246
2022-09-18T09:07:09.270Z,101246
2022-09-18T09:08:01.620Z,101246
2022-09-18T09:09:02.112Z,101246
2022-09-18T09:10:00.649Z,101246
2022-09-18T09:11:10.428Z,101237
2022-09-18T09:12:00.834Z,101237
2022-09-18T09:13:00.815Z,101237
2022-09-18T09:14:10.217Z,101237
2022-09-18T09:15:00.271Z,101237
2022-09-18T09:16:04.194Z,101240
2022-09-18T09:17:03.959Z,101240
2022-09-18T09:18:10.581Z,101240
2022-09-18T09:19:01.952Z,101240
2022-09-18T09:20:06.359Z,101240
2022-09-18T09:21:11.890Z,101244
2022-09-18T09:22:03.892Z,101244
2022-09-18T09:23:08.338Z,101244
2022-09-18T09:24:04.062Z,101244
2022-09-18T09:25:07.979Z,101244
2022-09-18T09:26:02.917Z,101238
2022-09-18T09:27:05.040Z,101238
2022-09-18T09:28:09.952Z,101238
2022-09-18T09:29:00.559Z,101238
2022-09-18T09:30:04.912Z,101238
2022-09-18T09:31:02.081Z,101229
2022-09-18T09:32:05.602Z,101229
2022-09-18T09:33:03.601Z,101229
2022-09-18T09:34:03.815Z,101229
2022-09-18T09:35:07.940Z,101229
2022-09-18T09:36:06.190Z,101230
2022-09-18T09:37:02.616Z,101230
2022-09-18T09:38:04.735Z,101230
2022-09-18T09:39:07.838Z,101230
2022-09-18T09:40:04.291Z,101230
2022-09-18T09:41:05.745Z,101235
2022-09-18T09:42:04.492Z,101235
2022-09-18T09:43:04.473Z,101235
2022-09-18T09:44:03.694Z,101235
2022-09-18T09:45:09.612Z,101235
2022-09-18T09:46:09.009Z,101235
2022-09-18T09:47:03.757Z,101235
2022-09-18T09:48:05.653Z,101235
2022-09-18T09:49:04.215Z,101235
2022-09-18T09:50:07.784Z,101235
2022-09-18T09:51:10.182Z,101232
2022-09-18T09:52:10.189Z,101232
2022-09-18T09:53:02.017Z,101232
2022-09-18T09:54:01.233Z,101232
2022-09-18T09:55:11.295Z,101232
2022-09-18T09:56:07.722Z,101236
2022-09-18T09:57:03.567Z,101236
2022-09-18T09:58:01.620Z,101236
2022-09-18T09:59:08.559Z,101236
2022-09-18T10:00:03.750Z,101236
2022-09-18T10:01:10.257Z,101226
2022-09-18T10:02:01.638Z,101226
2022-09-18T10:03:01.898Z,101226
2022-09-18T10:04:10.176Z,101226
2022-09-18T10:05:06.208Z,101226
2022-09-18T10:06:21.871Z,101225
2022-09-18T10:07:10.226Z,101225
2022-09-18T10:08:04.990Z,101225
2022-09-18T10:09:04.003Z,101225
2022-09-18T10:10:05.884Z,101225
2022-09-18T10:11:01.418Z,101232
2022-09-18T10:12:05.120Z,101232
2022-09-18T10:13:05.038Z,101232
2022-09-18T10:14:04.626Z,101232
2022-09-18T10:15:10.197Z,101232
2022-09-18T10:16:05.145Z,101233
2022-09-18T10:17:01.953Z,101233
2022-09-18T10:18:03.013Z,101233
2022-09-18T10:19:00.550Z,101233
2022-09-18T10:20:00.375Z,101233
2022-09-18T10:21:06.307Z,101237
2022-09-18T10:22:02.940Z,101237
2022-09-18T10:23:04.529Z,101237
2022-09-18T10:24:09.335Z,101237
2022-09-18T10:25:04.464Z,101237
2022-09-18T10:26:00.703Z,101239
2022-09-18T10:27:04.723Z,101239
2022-09-18T10:28:00.339Z,101239
2022-09-18T10:29:00.272Z,101239
2022-09-18T10:30:05.645Z,101239
2022-09-18T10:31:03.931Z,101228
2022-09-18T10:32:00.718Z,101228
2022-09-18T10:33:00.406Z,101228
2022-09-18T10:34:00.324Z,101228
2022-09-18T10:35:00.311Z,101228
2022-09-18T10:36:01.840Z,101231
2022-09-18T10:37:01.035Z,101231
2022-09-18T10:38:00.292Z,101231
2022-09-18T10:39:10.164Z,101231
2022-09-18T10:40:00.990Z,101231
2022-09-18T10:41:10.195Z,101223
2022-09-18T10:42:01.963Z,101223
2022-09-18T10:43:01.300Z,101223
2022-09-18T10:44:00.304Z,101223
2022-09-18T10:45:03.685Z,101223
2022-09-18T10:46:00.488Z,101221
2022-09-18T10:47:01.356Z,101221
2022-09-18T10:48:05.838Z,101221
2022-09-18T10:49:03.181Z,101221
2022-09-18T10:50:10.179Z,101221
2022-09-18T10:51:01.215Z,101239
2022-09-18T10:52:10.243Z,101239
2022-09-18T10:53:10.195Z,101239
2022-09-18T10:54:01.914Z,101239
2022-09-18T10:55:07.293Z,101239
2022-09-18T10:56:03.256Z,101232
2022-09-18T10:57:10.173Z,101232
2022-09-18T10:58:10.172Z,101232
2022-09-18T10:59:10.189Z,101232
2022-09-18T11:00:01.027Z,101232
2022-09-18T11:01:08.639Z,101230
2022-09-18T11:02:02.225Z,101230
2022-09-18T11:03:10.188Z,101230
2022-09-18T11:04:03.735Z,101230
2022-09-18T11:05:01.469Z,101230
2022-09-18T11:06:02.368Z,101232
2022-09-18T11:07:01.609Z,101232
2022-09-18T11:08:03.291Z,101232
2022-09-18T11:09:01.214Z,101232
2022-09-18T11:10:05.823Z,101232
2022-09-18T11:11:02.362Z,101231
2022-09-18T11:12:00.660Z,101231
2022-09-18T11:13:01.033Z,101231
2022-09-18T11:14:01.828Z,101231
2022-09-18T11:15:01.846Z,101231
2022-09-18T11:16:01.420Z,101242
2022-09-18T11:17:00.983Z,101242
2022-09-18T11:18:02.661Z,101242
2022-09-18T11:19:06.511Z,101242
2022-09-18T11:20:01.573Z,101242
2022-09-18T11:21:01.460Z,101245
2022-09-18T11:22:02.884Z,101245
2022-09-18T11:23:10.171Z,101245
2022-09-18T11:24:02.821Z,101245
2022-09-18T11:25:07.937Z,101245
2022-09-18T11:26:10.214Z,101249
2022-09-18T11:27:01.239Z,101249
2022-09-18T11:28:00.358Z,101249
2022-09-18T11:29:04.693Z,101249
2022-09-18T11:30:10.263Z,101249
2022-09-18T11:31:03.155Z,101250
2022-09-18T11:32:00.355Z,101250
2022-09-18T11:33:10.399Z,101250
2022-09-18T11:34:04.263Z,101250
2022-09-18T11:35:01.540Z,101250
2022-09-18T11:36:02.358Z,101250
2022-09-18T11:37:04.213Z,101250
2022-09-18T11:38:03.165Z,101250
2022-09-18T11:39:00.798Z,101250
2022-09-18T11:40:03.384Z,101250
2022-09-18T11:41:00.353Z,101239
2022-09-18T11:42:00.413Z,101239
2022-09-18T11:43:00.341Z,101239
2022-09-18T11:44:00.758Z,101239
2022-09-18T11:45:10.201Z,101239
2022-09-18T11:46:10.211Z,101237
2022-09-18T11:47:10.264Z,101237
2022-09-18T11:48:03.585Z,101237
2022-09-18T11:49:04.637Z,101237
2022-09-18T11:50:01.299Z,101237
2022-09-18T11:51:03.167Z,101236
2022-09-18T11:52:10.310Z,101236
2022-09-18T11:53:03.483Z,101236
2022-09-18T11:54:04.799Z,101236
2022-09-18T11:55:09.835Z,101236
2022-09-18T11:56:10.192Z,101237
2022-09-18T11:57:02.250Z,101237
2022-09-18T11:58:02.269Z,101237
2022-09-18T11:59:05.004Z,101237
2022-09-18T12:00:04.412Z,101237
2022-09-18T12:01:10.193Z,101236
2022-09-18T12:02:09.375Z,101236
2022-09-18T12:03:05.250Z,101236
2022-09-18T12:04:10.173Z,101236
2022-09-18T12:05:10.173Z,101236
2022-09-18T12:06:04.585Z,101233
2022-09-18T12:07:07.247Z,101233
2022-09-18T12:08:08.816Z,101233
2022-09-18T12:08:58.902Z,101233
2022-09-18T12:09:58.998Z,101233
2022-09-18T12:11:09.024Z,101237
2022-09-18T12:11:58.893Z,101237
2022-09-18T12:13:08.830Z,101237
2022-09-18T12:14:03.059Z,101237
2022-09-18T12:15:02.497Z,101237
2022-09-18T12:16:07.028Z,101247
2022-09-18T12:17:04.975Z,101247
2022-09-18T12:18:07.465Z,101247
2022-09-18T12:19:03.974Z,101247
2022-09-18T12:20:08.808Z,101247
2022-09-18T12:21:01.935Z,101232
2022-09-18T12:22:08.811Z,101232
2022-09-18T12:23:00.127Z,101232
2022-09-18T12:23:59.129Z,101232
2022-09-18T12:24:58.967Z,101232
2022-09-18T12:26:08.803Z,101216
2022-09-18T12:26:58.894Z,101216
2022-09-18T12:28:08.818Z,101216